Pfau, Belgium

8:45 PM CET on February 19, 2017 (GMT +0100)
Möschenberg | | Change Station

Elev 885 ft 50.70 °N, 6.09 °E | Updated 4 minutes ago

Overcast
Overcast
43.5 °F
Feels Like 44 °F
N
2.5
Wind Variable Wind from SW
Gusts 5.0 mph

Today
High -- | Low -- °F
--% Chance of Precip.
Yesterday
High -- | Low -- °F
Precip. -- in
Pressure 30.18 in
Visibility 5.6 miles
Clouds Few 1700 ft
Mostly Cloudy 4600 ft
Windchill 44 °F
Dew Point 43 °F
Humidity 97%
Rainfall 0.00 in
Snow Depth Not available.
7:39 AM 5:59 PM
Last Quarter, 41% visible
METAR EBLG 191920Z 25009KT 9000 FEW017 BKN046 07/05 Q1022 NOSIG
Pressure 30.18 in
Visibility 5.6 miles
Clouds Few 1700 ft
Mostly Cloudy 4600 ft
Windchill 44 °F
Dew Point 43 °F
Humidity 97%
Rainfall 0.00 in
Snow Depth Not available.
7:39 AM 5:59 PM
Last Quarter, 41% visible
METAR EBLG 191920Z 25009KT 9000 FEW017 BKN046 07/05 Q1022 NOSIG

Get Your Daily Forecast Email!

Thanks for signing up!

Be on the lookout for a verification email in your inbox.

You'll start receiving the daily forecast at 8 AM.

×

10-Day Weather Forecast

×

Almanac

Astronomy

Feb. 19, 2017 Rise Set
Actual Time
Civil Twilight
Nautical Twilight
Astronomical Twilight
Moon
Length of Visible Light
Length of Day
Tomorrow will be .
, % of the Moon is Illuminated

Today's Extremes

Country Highs Country Lows

Community

WunderPhotos

Upload Photos

1,962,540 photos uploaded!

WunderBlog® & News

Nearby

Air Quality

  Air Quality AQ Index Pollutant
Not available.

Snow Depth

Station Depth Elevation

Earthquake Activity

City Distance Mag. Time & Date
Minimum magnitude displayed is 2.5.

Coastal Water Temperatures

Place Temperature

Stations

Nearby Weather Stations

Station Location Temp. Windchill Dew Point Humidity Wind Precip. Elev Updated Type